Time;durP1;ratioP1;P1;durP2;ratioP2;P2;SDS_P1;SDS_P2;PMS_P1;PMS_P2;Temp;Humidity;BMP_temperature;BMP_pressure;BME280_temperature;BME280_humidity;BME280_pressure;Samples;Min_cycle;Max_cycle;Signal;HPM_P1;HPM_P2
2022/04/01 00:00:44;;;;;;;1.65;1.23;;;2.20;99.90;;;;;;4948751;28;20044;-69
2022/04/01 00:03:12;;;;;;;3.47;1.33;;;2.20;99.90;;;;;;4946704;29;20118;-69
2022/04/01 00:05:39;;;;;;;6.30;1.67;;;2.20;99.90;;;;;;4944793;29;20047;-69
2022/04/01 00:08:06;;;;;;;5.53;1.80;;;2.30;99.90;;;;;;4933786;29;20058;-69
2022/04/01 00:10:35;;;;;;;5.07;1.70;;;2.30;99.90;;;;;;4940758;29;20106;-70
2022/04/01 00:13:02;;;;;;;4.03;1.50;;;2.30;99.90;;;;;;4946905;28;20051;-73
2022/04/01 00:15:29;;;;;;;7.28;2.25;;;2.40;99.90;;;;;;4947407;29;20062;-69
2022/04/01 00:17:56;;;;;;;2.85;1.38;;;2.40;99.90;;;;;;4950090;28;20047;-71
2022/04/01 00:20:23;;;;;;;3.45;1.40;;;2.50;99.90;;;;;;4950033;28;20483;-69
2022/04/01 00:22:50;;;;;;;3.00;1.27;;;2.50;99.90;;;;;;4955000;29;20059;-69
2022/04/01 00:25:17;;;;;;;3.97;1.27;;;2.40;99.90;;;;;;4956749;28;20059;-69
2022/04/01 00:27:44;;;;;;;2.75;1.60;;;2.40;99.90;;;;;;4945223;29;20052;-68
2022/04/01 00:30:11;;;;;;;5.32;1.48;;;2.30;99.90;;;;;;4947572;29;20380;-69
2022/04/01 00:32:38;;;;;;;2.58;1.60;;;2.30;99.90;;;;;;4949919;29;20051;-68
2022/04/01 00:35:06;;;;;;;3.67;1.60;;;2.30;99.90;;;;;;4929051;29;20047;-68
2022/04/01 00:37:33;;;;;;;3.67;1.60;;;2.20;99.90;;;;;;4955444;29;20048;-73
2022/04/01 00:40:00;;;;;;;3.20;1.75;;;2.20;99.90;;;;;;4956412;29;20054;-68
2022/04/01 00:42:27;;;;;;;5.55;2.17;;;2.10;99.90;;;;;;4956931;28;20521;-67
2022/04/01 00:44:54;;;;;;;2.30;1.60;;;2.10;99.90;;;;;;4952835;28;20043;-67
2022/04/01 00:47:21;;;;;;;5.30;2.08;;;2.10;99.90;;;;;;4925590;29;20048;-67
2022/04/01 00:49:48;;;;;;;3.40;1.77;;;2.00;99.90;;;;;;4952585;29;20511;-67
2022/04/01 00:52:17;;;;;;;3.45;1.65;;;2.00;99.90;;;;;;4952503;29;20082;-75
2022/04/01 00:54:44;;;;;;;3.15;1.60;;;2.00;99.90;;;;;;4939352;29;20055;-68
2022/04/01 00:57:13;;;;;;;3.63;2.15;;;2.00;99.90;;;;;;4940303;29;20122;-67
2022/04/01 00:59:41;;;;;;;2.53;1.70;;;2.00;99.90;;;;;;4938516;29;20087;-68
2022/04/01 01:02:08;;;;;;;4.35;1.77;;;2.10;99.90;;;;;;4936100;29;20052;-67
2022/04/01 01:04:36;;;;;;;2.63;1.65;;;2.10;99.90;;;;;;4953834;29;20070;-68
2022/04/01 01:07:04;;;;;;;3.28;1.80;;;2.20;99.90;;;;;;4954857;29;20490;-67
2022/04/01 01:09:37;;;;;;;5.55;1.50;;;2.20;99.90;;;;;;4940175;29;20395;-68
2022/04/01 01:12:06;;;;;;;3.35;1.63;;;2.20;99.90;;;;;;4933479;29;20047;-68
2022/04/01 01:14:34;;;;;;;4.03;1.65;;;2.20;99.90;;;;;;4962635;28;20091;-69
2022/04/01 01:17:03;;;;;;;4.40;2.00;;;2.20;99.90;;;;;;4946257;29;20052;-68
2022/04/01 01:19:30;;;;;;;4.95;1.98;;;2.10;99.90;;;;;;4935350;29;20055;-68
2022/04/01 01:21:57;;;;;;;3.15;1.88;;;2.10;99.90;;;;;;4939257;29;20058;-68
2022/04/01 01:24:29;;;;;;;5.20;1.80;;;2.00;99.90;;;;;;4954572;28;20483;-68
2022/04/01 01:26:57;;;;;;;4.68;1.58;;;2.00;99.90;;;;;;4938132;29;20053;-68
2022/04/01 01:29:30;;;;;;;6.82;2.72;;;1.90;99.90;;;;;;4945610;28;20050;-68
2022/04/01 01:31:59;;;;;;;4.07;1.92;;;1.90;99.90;;;;;;4926060;29;20052;-69
2022/04/01 01:34:27;;;;;;;3.13;1.60;;;1.90;99.90;;;;;;4948684;29;20584;-68
2022/04/01 01:36:54;;;;;;;3.20;1.80;;;1.90;99.90;;;;;;4954730;29;20043;-68
2022/04/01 01:39:21;;;;;;;3.38;1.80;;;1.90;99.90;;;;;;4954384;29;20043;-68
2022/04/01 01:41:49;;;;;;;3.13;1.52;;;1.90;99.90;;;;;;4955866;28;20078;-68
2022/04/01 01:44:18;;;;;;;3.65;2.13;;;1.90;99.90;;;;;;4954913;29;20435;-68
2022/04/01 01:46:45;;;;;;;5.70;2.00;;;1.90;99.90;;;;;;4955102;29;20065;-68
2022/04/01 01:49:15;;;;;;;4.25;2.15;;;1.90;99.90;;;;;;4949947;29;20051;-73
2022/04/01 01:54:49;;;;;;;5.25;3.25;;;1.90;99.90;;;;;;4945126;29;20491;-68
2022/04/01 01:57:18;;;;;;;4.43;2.38;;;1.90;99.90;;;;;;4955437;29;20459;-68
2022/04/01 01:59:45;;;;;;;4.22;2.90;;;1.90;99.90;;;;;;4935835;29;20048;-68
2022/04/01 02:02:12;;;;;;;4.55;2.35;;;1.90;99.90;;;;;;4954116;29;20058;-68
2022/04/01 02:04:41;;;;;;;5.07;2.50;;;1.90;99.90;;;;;;4954290;29;20047;-67
2022/04/01 02:07:09;;;;;;;7.25;2.53;;;1.90;99.90;;;;;;4954373;29;20054;-69
2022/04/01 02:09:36;;;;;;;6.00;3.20;;;1.90;99.90;;;;;;4938022;29;20055;-69
2022/04/01 02:12:03;;;;;;;7.70;3.17;;;1.80;99.90;;;;;;4954246;29;20114;-68
2022/04/01 02:14:30;;;;;;;5.63;3.20;;;1.80;99.90;;;;;;4931581;29;20051;-68
2022/04/01 02:16:57;;;;;;;7.95;4.18;;;1.80;99.90;;;;;;4953474;29;20054;-67
2022/04/01 02:19:25;;;;;;;6.68;3.28;;;1.80;99.90;;;;;;4952902;29;20051;-71
2022/04/01 02:21:52;;;;;;;5.30;3.33;;;1.80;99.90;;;;;;4938327;29;20455;-68
2022/04/01 02:24:23;;;;;;;6.22;3.25;;;1.70;99.90;;;;;;4953928;29;20058;-68
2022/04/01 02:26:50;;;;;;;5.30;3.10;;;1.80;99.90;;;;;;4933558;29;20047;-68
2022/04/01 02:29:19;;;;;;;8.05;3.30;;;1.70;99.90;;;;;;4954909;28;20062;-68
2022/04/01 02:31:50;;;;;;;5.70;3.40;;;1.70;99.90;;;;;;4941792;29;20446;-68
2022/04/01 02:34:20;;;;;;;4.65;3.33;;;1.70;99.90;;;;;;4938339;29;20126;-70
2022/04/01 02:36:47;;;;;;;4.35;3.63;;;1.70;99.90;;;;;;4952597;28;20058;-68
2022/04/01 02:39:14;;;;;;;5.35;3.58;;;1.80;99.90;;;;;;4954504;28;20066;-68
2022/04/01 02:41:41;;;;;;;5.32;3.78;;;1.70;99.90;;;;;;4952761;29;20502;-69
2022/04/01 02:44:08;;;;;;;4.88;3.08;;;1.70;99.90;;;;;;4953534;29;20047;-68
2022/04/01 02:46:37;;;;;;;5.53;2.97;;;1.70;99.90;;;;;;4953839;28;20051;-68
2022/04/01 02:49:06;;;;;;;4.75;2.92;;;1.70;99.90;;;;;;4946752;29;20513;-68
2022/04/01 02:51:37;;;;;;;7.32;2.90;;;1.70;99.90;;;;;;4953414;29;20134;-67
2022/04/01 02:54:04;;;;;;;9.82;3.42;;;1.70;99.90;;;;;;4937465;29;20055;-68
2022/04/01 02:56:32;;;;;;;5.18;2.90;;;1.70;99.90;;;;;;4952597;29;20055;-68
2022/04/01 02:59:00;;;;;;;3.35;2.22;;;1.70;99.90;;;;;;4936659;29;20130;-68
2022/04/01 03:01:28;;;;;;;8.50;3.45;;;1.70;99.90;;;;;;4960065;28;20051;-73
2022/04/01 03:03:55;;;;;;;8.68;2.67;;;1.70;99.90;;;;;;4952331;29;20055;-69
2022/04/01 03:06:22;;;;;;;7.28;2.92;;;1.70;99.90;;;;;;4937480;29;20047;-67
2022/04/01 03:08:50;;;;;;;4.68;2.30;;;1.70;99.90;;;;;;4924563;29;20044;-68
2022/04/01 03:11:17;;;;;;;4.88;2.40;;;1.70;99.90;;;;;;4953176;29;20219;-68
2022/04/01 03:13:44;;;;;;;8.93;2.92;;;1.70;99.90;;;;;;4952533;29;20046;-68
2022/04/01 03:16:12;;;;;;;10.18;2.97;;;1.70;99.90;;;;;;4951434;29;20053;-68
2022/04/01 03:18:42;;;;;;;3.80;2.30;;;1.70;99.90;;;;;;4942994;29;20039;-67
2022/04/01 03:21:12;;;;;;;7.35;2.60;;;1.70;99.90;;;;;;4951592;29;20558;-67
2022/04/01 03:23:39;;;;;;;;;;;1.70;99.90;;;;;;4954208;28;20047;-67
2022/04/01 03:26:06;;;;;;;6.22;2.65;;;1.70;99.90;;;;;;4952780;29;19976;-77
2022/04/01 03:28:37;;;;;;;4.55;2.20;;;1.60;99.90;;;;;;4952473;28;20055;-67
2022/04/01 03:31:04;;;;;;;4.78;2.05;;;1.60;99.90;;;;;;4948938;29;20047;-67
2022/04/01 03:33:32;;;;;;;7.40;2.63;;;1.60;99.90;;;;;;4953244;28;20059;-68
2022/04/01 03:35:59;;;;;;;4.70;2.35;;;1.60;99.90;;;;;;4944844;29;20051;-68
2022/04/01 03:38:26;;;;;;;5.25;2.17;;;1.60;99.90;;;;;;4951326;29;20054;-72
2022/04/01 03:40:53;;;;;;;6.30;2.10;;;1.60;99.90;;;;;;4951864;29;20411;-70
2022/04/01 03:43:21;;;;;;;4.75;2.15;;;1.60;99.90;;;;;;4952381;29;20047;-68
2022/04/01 03:45:51;;;;;;;5.32;2.38;;;1.60;99.90;;;;;;4952104;29;20387;-68
2022/04/01 03:48:31;;;;;;;3.05;1.85;;;1.60;99.90;;;;;;4933375;29;20047;-69
2022/04/01 03:50:58;;;;;;;3.88;2.20;;;1.60;99.90;;;;;;4945975;29;20051;-68
2022/04/01 03:53:29;;;;;;;4.78;2.47;;;1.60;99.90;;;;;;4952238;29;20483;-67
2022/04/01 03:55:56;;;;;;;3.63;2.40;;;1.60;99.90;;;;;;4953764;29;20051;-69
2022/04/01 03:58:30;;;;;;;7.05;2.30;;;1.60;99.90;;;;;;4922364;29;20490;-68
2022/04/01 04:01:01;;;;;;;5.40;2.60;;;1.60;99.90;;;;;;4947303;29;20581;-68
2022/04/01 04:03:29;;;;;;;3.50;2.13;;;1.60;99.90;;;;;;4951802;29;20075;-68
2022/04/01 04:05:57;;;;;;;5.07;2.35;;;1.60;99.90;;;;;;4951648;29;20051;-71
2022/04/01 04:08:24;;;;;;;3.80;2.08;;;1.60;99.90;;;;;;4953623;28;20058;-68
2022/04/01 04:10:52;;;;;;;4.00;2.40;;;1.60;99.90;;;;;;4941667;29;20055;-68
2022/04/01 04:13:20;;;;;;;4.72;2.28;;;1.60;99.90;;;;;;4955758;28;20055;-67
2022/04/01 04:15:51;;;;;;;4.90;2.88;;;1.60;99.90;;;;;;4952494;29;20057;-68
2022/04/01 04:18:20;;;;;;;5.35;2.38;;;1.60;99.90;;;;;;4935463;29;20044;-68
2022/04/01 04:21:06;;;;;;;4.45;2.80;;;1.60;99.90;;;;;;4941873;29;20060;-68
2022/04/01 04:23:45;;;;;;;5.10;2.65;;;1.60;99.90;;;;;;4946159;29;20047;-68
2022/04/01 04:26:21;;;;;;;6.05;2.20;;;1.60;99.90;;;;;;4931398;29;20050;-68
2022/04/01 04:28:50;;;;;;;6.05;2.67;;;1.60;99.90;;;;;;4951247;29;20059;-68
2022/04/01 04:31:28;;;;;;;6.18;2.70;;;1.60;99.90;;;;;;4953711;28;20572;-68
2022/04/01 04:33:56;;;;;;;4.25;2.20;;;1.70;99.90;;;;;;4938611;29;20047;-71
2022/04/01 04:36:38;;;;;;;6.78;2.65;;;1.70;99.90;;;;;;4952498;29;20047;-68
2022/04/01 04:39:07;;;;;;;4.85;2.15;;;1.70;99.90;;;;;;4952202;29;20055;-75
2022/04/01 04:41:34;;;;;;;6.73;2.70;;;1.70;99.90;;;;;;4952488;29;20109;-68
2022/04/01 04:44:01;;;;;;;5.47;2.15;;;1.70;99.90;;;;;;4935337;29;20059;-69
2022/04/01 04:46:28;;;;;;;8.10;2.63;;;1.70;99.90;;;;;;4932889;29;20831;-68
2022/04/01 04:48:55;;;;;;;7.63;2.58;;;1.70;99.90;;;;;;4936316;29;20410;-68
2022/04/01 04:51:26;;;;;;;5.53;2.60;;;1.60;99.90;;;;;;4949499;29;20047;-68
2022/04/01 04:53:53;;;;;;;3.72;2.80;;;1.70;99.90;;;;;;4952389;29;20407;-68
2022/04/01 04:56:20;;;;;;;5.28;3.28;;;1.60;99.90;;;;;;4934489;29;20052;-68
2022/04/01 04:58:47;;;;;;;4.13;2.22;;;1.60;99.90;;;;;;4951974;29;20047;-68
2022/04/01 05:01:56;;;;;;;5.70;2.65;;;1.60;99.90;;;;;;4954342;28;20043;-74
2022/04/01 05:04:39;;;;;;;4.15;2.40;;;1.60;99.90;;;;;;4868050;29;20045;-68
2022/04/01 05:07:29;;;;;;;7.07;2.45;;;1.60;99.90;;;;;;4861878;29;20045;-69
2022/04/01 05:10:03;;;;;;;5.30;2.85;;;1.60;99.90;;;;;;4927060;29;20050;-68
2022/04/01 05:12:44;;;;;;;5.82;2.97;;;1.60;99.90;;;;;;4954317;29;20043;-68
2022/04/01 05:15:11;;;;;;;4.35;2.15;;;1.60;99.90;;;;;;4955303;29;20051;-69
2022/04/01 05:17:53;;;;;;;4.40;2.38;;;1.60;99.90;;;;;;4955321;28;20055;-68
2022/04/01 05:20:28;;;;;;;7.10;2.55;;;1.60;99.90;;;;;;4941709;29;20051;-69
2022/04/01 05:22:59;;;;;;;5.95;2.20;;;1.70;99.90;;;;;;4937427;29;20128;-68
2022/04/01 05:25:27;;;;;;;7.40;2.88;;;1.70;99.90;;;;;;4956198;28;20043;-69
2022/04/01 05:27:54;;;;;;;5.00;1.92;;;1.80;99.90;;;;;;4955161;29;20047;-69
2022/04/01 05:30:25;;;;;;;5.93;2.55;;;1.80;99.90;;;;;;4947337;29;20047;-69
2022/04/01 05:33:08;;;;;;;11.52;2.80;;;1.80;99.90;;;;;;4939438;29;20053;-68
2022/04/01 05:35:40;;;;;;;4.38;2.55;;;1.90;99.90;;;;;;4956446;28;20383;-68
2022/04/01 05:38:07;;;;;;;6.50;2.63;;;1.80;99.90;;;;;;4965714;28;20411;-68
2022/04/01 05:40:36;;;;;;;4.10;3.22;;;1.80;99.90;;;;;;4967581;28;20055;-67
2022/04/01 05:43:04;;;;;;;6.40;2.97;;;1.80;99.90;;;;;;4974339;28;20057;-68
2022/04/01 05:45:31;;;;;;;5.55;2.08;;;1.90;99.90;;;;;;4967174;28;20039;-69
2022/04/01 05:47:58;;;;;;;5.93;2.42;;;1.80;99.90;;;;;;4954453;29;20134;-67
2022/04/01 05:50:26;;;;;;;7.68;2.95;;;1.90;99.90;;;;;;4938199;28;20047;-69
2022/04/01 05:52:53;;;;;;;6.63;1.98;;;1.80;99.90;;;;;;4956607;28;20142;-68
2022/04/01 05:55:25;;;;;;;6.18;2.95;;;1.80;99.90;;;;;;4922533;29;20380;-67
2022/04/01 05:57:53;;;;;;;3.83;2.45;;;1.90;99.90;;;;;;4936344;29;20102;-68
2022/04/01 06:00:21;;;;;;;6.60;3.13;;;1.90;99.90;;;;;;4953808;29;20134;-68
2022/04/01 06:02:59;;;;;;;6.32;2.42;;;1.90;99.90;;;;;;4934113;29;20070;-68
2022/04/01 06:05:34;;;;;;;4.82;2.25;;;1.90;99.90;;;;;;4938357;29;20106;-68
2022/04/01 06:08:44;;;;;;;6.97;2.60;;;1.90;99.90;;;;;;4942161;28;20065;-67
2022/04/01 06:11:22;;;;;;;5.65;2.40;;;1.90;99.90;;;;;;4880465;29;20057;-67
2022/04/01 06:14:09;;;;;;;9.05;2.30;;;1.90;99.90;;;;;;4948304;29;20054;-68
2022/04/01 06:16:49;;;;;;;4.45;2.35;;;1.90;99.90;;;;;;4953705;29;20491;-69
2022/04/01 06:19:31;;;;;;;;;;;2.00;99.90;;;;;;4929210;29;20059;-70
2022/04/01 06:22:06;;;;;;;9.20;5.90;;;2.00;99.90;;;;;;4959791;28;20405;-68
2022/04/01 06:24:42;;;;;;;8.55;3.08;;;2.00;99.90;;;;;;4953867;29;20054;-73
2022/04/01 06:27:11;;;;;;;6.25;2.67;;;2.10;99.90;;;;;;4954779;29;20054;-71
2022/04/01 06:29:42;;;;;;;7.13;2.28;;;2.20;99.90;;;;;;4953326;29;20071;-72
2022/04/01 06:32:41;;;;;;;3.72;2.67;;;2.20;99.90;;;;;;4920326;29;20044;-67
2022/04/01 06:35:18;;;;;;;10.53;3.20;;;2.20;99.90;;;;;;4900728;29;20051;-71
2022/04/01 06:38:01;;;;;;;4.35;2.17;;;2.30;99.90;;;;;;4947195;29;20781;-71
2022/04/01 06:40:50;;;;;;;8.93;4.05;;;2.40;99.90;;;;;;4952387;29;20593;-72
2022/04/01 06:43:17;;;;;;;4.32;3.00;;;2.40;99.90;;;;;;4953679;29;20122;-67
2022/04/01 06:45:44;;;;;;;9.63;2.78;;;2.30;99.90;;;;;;4955368;28;20061;-70
2022/04/01 06:48:11;;;;;;;8.50;3.08;;;2.30;99.90;;;;;;4954029;29;20058;-70
2022/04/01 06:50:38;;;;;;;6.10;2.63;;;2.30;99.90;;;;;;4953045;28;20062;-71
2022/04/01 06:53:05;;;;;;;8.50;3.65;;;2.20;99.90;;;;;;4936159;29;20057;-69
2022/04/01 06:55:32;;;;;;;4.53;2.60;;;2.20;99.90;;;;;;4927091;29;20384;-68
2022/04/01 06:57:59;;;;;;;5.38;2.95;;;2.20;99.90;;;;;;4933583;29;20066;-68
2022/04/01 07:00:26;;;;;;;6.13;3.10;;;2.20;99.90;;;;;;4946842;29;20059;-68
2022/04/01 07:02:53;;;;;;;6.53;2.90;;;2.20;99.90;;;;;;4937349;29;20051;-70
2022/04/01 07:05:20;;;;;;;10.45;3.20;;;2.20;99.90;;;;;;4919322;29;20057;-70
2022/04/01 07:07:47;;;;;;;12.38;4.47;;;2.20;99.90;;;;;;4948428;29;20054;-70
2022/04/01 07:10:14;;;;;;;7.78;3.42;;;2.10;99.90;;;;;;4922255;29;20058;-67
2022/04/01 07:12:41;;;;;;;4.97;3.05;;;2.20;99.90;;;;;;4947474;29;20083;-68
2022/04/01 07:15:10;;;;;;;5.30;3.17;;;2.20;99.90;;;;;;4952877;29;20062;-68
2022/04/01 07:17:38;;;;;;;5.75;2.88;;;2.20;99.90;;;;;;4952733;29;20047;-66
2022/04/01 07:20:12;;;;;;;4.68;2.97;;;2.30;99.90;;;;;;4934377;29;20067;-71
2022/04/01 07:22:49;;;;;;;6.63;3.85;;;2.30;99.90;;;;;;4934015;29;20093;-69
2022/04/01 07:25:17;;;;;;;21.55;13.73;;;2.30;99.90;;;;;;4934416;29;20422;-70
2022/04/01 07:27:44;;;;;;;8.98;5.15;;;2.40;99.90;;;;;;4949987;29;20063;-72
2022/04/01 07:30:12;;;;;;;9.18;2.78;;;2.50;99.90;;;;;;4951204;29;20101;-69
2022/04/01 07:32:40;;;;;;;7.45;3.08;;;2.50;99.90;;;;;;4940725;29;20229;-69
2022/04/01 07:35:10;;;;;;;6.88;2.95;;;2.60;99.90;;;;;;4940908;28;20388;-71
2022/04/01 07:37:38;;;;;;;8.32;4.93;;;2.70;99.90;;;;;;4927224;29;20073;-70
2022/04/01 07:40:19;;;;;;;5.47;2.65;;;2.80;99.90;;;;;;4937208;29;20050;-70
2022/04/01 07:42:48;;;;;;;6.90;2.50;;;2.90;99.90;;;;;;4947237;29;20098;-71
2022/04/01 07:45:17;;;;;;;7.25;3.65;;;3.00;99.90;;;;;;4947136;29;20047;-69
2022/04/01 07:47:46;;;;;;;7.65;2.45;;;3.00;99.90;;;;;;4951696;29;20055;-72
2022/04/01 07:50:14;;;;;;;4.82;2.65;;;3.10;99.90;;;;;;4950332;29;20055;-65
2022/04/01 07:52:43;;;;;;;8.38;2.75;;;3.10;99.90;;;;;;4936119;29;20062;-73
2022/04/01 07:55:11;;;;;;;;;;;3.20;99.90;;;;;;4918746;29;20048;-73
2022/04/01 07:57:38;;;;;;;7.05;2.95;;;3.30;99.90;;;;;;4933616;29;19931;-72
2022/04/01 08:00:12;;;;;;;5.25;2.55;;;3.40;99.90;;;;;;4918747;29;20134;-74
2022/04/01 08:02:39;;;;;;;8.23;2.75;;;3.50;99.90;;;;;;4945600;28;20079;-73
2022/04/01 08:05:07;;;;;;;6.47;2.67;;;3.50;99.90;;;;;;4938833;28;20484;-73
2022/04/01 08:07:34;;;;;;;9.93;2.83;;;3.60;99.90;;;;;;4951481;28;20105;-73
2022/04/01 08:10:03;;;;;;;7.25;3.50;;;3.60;99.90;;;;;;4950841;29;20074;-73
2022/04/01 08:12:39;;;;;;;5.32;2.40;;;3.70;99.90;;;;;;4956189;28;20789;-73
2022/04/01 08:15:06;;;;;;;8.07;2.53;;;3.90;99.90;;;;;;4951734;29;20051;-73
2022/04/01 08:17:33;;;;;;;5.78;2.63;;;4.00;99.90;;;;;;4951448;29;20087;-74
2022/04/01 08:20:00;;;;;;;5.40;2.30;;;4.10;99.90;;;;;;4951260;29;20067;-74
2022/04/01 08:22:27;;;;;;;9.10;4.05;;;4.00;99.90;;;;;;4951858;29;20048;-73
2022/04/01 08:24:54;;;;;;;4.88;2.60;;;4.00;99.90;;;;;;4952988;29;20098;-73
2022/04/01 08:27:21;;;;;;;7.50;2.70;;;4.00;99.90;;;;;;4951674;29;20055;-73
2022/04/01 08:29:48;;;;;;;8.90;2.80;;;4.00;99.90;;;;;;4935918;29;20408;-75
2022/04/01 08:32:15;;;;;;;24.67;14.20;;;4.00;99.90;;;;;;4950335;29;20085;-70
2022/04/01 08:34:42;;;;;;;7.38;3.15;;;4.00;99.90;;;;;;4952168;28;20051;-72
2022/04/01 08:37:09;;;;;;;7.20;3.72;;;3.90;99.90;;;;;;4944843;29;20051;-71
2022/04/01 08:39:36;;;;;;;8.00;3.70;;;3.90;99.90;;;;;;4955710;29;20391;-72
2022/04/01 08:42:04;;;;;;;7.30;2.70;;;4.00;99.90;;;;;;4955662;29;20410;-73
2022/04/01 08:44:31;;;;;;;9.57;2.47;;;4.10;99.90;;;;;;4919373;28;20411;-71
2022/04/01 08:46:57;;;;;;;8.48;2.25;;;4.20;99.90;;;;;;4952935;28;20491;-71
2022/04/01 08:49:25;;;;;;;8.50;2.42;;;4.30;99.90;;;;;;4944984;29;20126;-72
2022/04/01 08:51:53;;;;;;;9.45;2.80;;;4.40;99.90;;;;;;4927852;29;20503;-72
2022/04/01 08:54:20;;;;;;;6.32;3.05;;;4.50;99.90;;;;;;4921488;29;20101;-72
2022/04/01 08:56:47;;;;;;;6.13;2.50;;;4.60;99.90;;;;;;4927610;29;20730;-73
2022/04/01 08:59:14;;;;;;;5.07;2.40;;;4.60;98.30;;;;;;4940230;29;20160;-73
2022/04/01 09:01:42;;;;;;;6.85;2.25;;;4.60;96.80;;;;;;4953254;29;20503;-71
2022/04/01 09:04:21;;;;;;;6.80;2.20;;;4.80;97.30;;;;;;4923189;29;20066;-72
2022/04/01 09:06:50;;;;;;;6.10;2.92;;;4.90;96.80;;;;;;4955145;29;20118;-72
2022/04/01 09:09:27;;;;;;;6.50;2.78;;;4.90;96.00;;;;;;4955697;29;20110;-72
2022/04/01 09:12:24;;;;;;;8.85;2.53;;;5.00;95.50;;;;;;4939588;29;20175;-72
2022/04/01 09:14:52;;;;;;;4.07;2.10;;;5.10;94.70;;;;;;4944163;29;20043;-72
2022/04/01 09:17:20;;;;;;;6.40;2.45;;;5.10;94.80;;;;;;4938996;29;20450;-72
2022/04/01 09:20:06;;;;;;;4.35;1.70;;;5.10;95.40;;;;;;4954713;29;20051;-73
2022/04/01 09:22:35;;;;;;;6.22;2.10;;;5.20;93.80;;;;;;4945041;29;20047;-73
2022/04/01 09:25:10;;;;;;;7.40;1.70;;;5.30;93.40;;;;;;4947172;29;20435;-73
2022/04/01 09:27:47;;;;;;;7.40;2.20;;;5.30;92.40;;;;;;4930556;29;20493;-72
2022/04/01 09:30:22;;;;;;;8.25;2.83;;;5.30;91.20;;;;;;4929208;29;20047;-72
2022/04/01 09:32:55;;;;;;;6.80;2.22;;;5.30;91.90;;;;;;4916339;29;20047;-72
2022/04/01 09:35:27;;;;;;;9.30;2.97;;;5.50;90.60;;;;;;4950134;28;20066;-74
2022/04/01 09:37:59;;;;;;;7.82;2.20;;;5.70;90.00;;;;;;4930559;29;20047;-74
2022/04/01 09:40:26;;;;;;;6.80;1.90;;;5.80;88.30;;;;;;4945346;29;20072;-75
2022/04/01 09:42:58;;;;;;;8.95;3.28;;;5.80;88.40;;;;;;4913544;29;20118;-71
2022/04/01 09:45:30;;;;;;;7.03;2.50;;;5.80;89.60;;;;;;4944343;29;20124;-71
2022/04/01 09:48:03;;;;;;;6.47;2.00;;;5.90;87.60;;;;;;4927641;28;20048;-73
2022/04/01 09:50:36;;;;;;;8.55;2.20;;;6.00;86.40;;;;;;4949866;29;20125;-74
2022/04/01 09:53:11;;;;;;;10.68;2.50;;;5.90;84.60;;;;;;4925051;29;20130;-73
2022/04/01 09:55:45;;;;;;;5.20;2.13;;;5.90;84.50;;;;;;4935447;29;20402;-72
2022/04/01 09:58:13;;;;;;;9.45;2.22;;;5.90;84.90;;;;;;4950503;29;20058;-81
2022/04/01 10:00:41;;;;;;;7.18;2.10;;;6.00;86.00;;;;;;4945986;29;20047;-71
2022/04/01 10:03:12;;;;;;;6.50;2.05;;;6.10;84.70;;;;;;4937521;28;20062;-71
2022/04/01 10:05:40;;;;;;;7.40;2.30;;;6.20;83.00;;;;;;4927372;29;20130;-74
2022/04/01 10:08:09;;;;;;;7.13;2.38;;;6.20;84.70;;;;;;4952282;28;20051;-80
2022/04/01 10:10:39;;;;;;;5.25;2.22;;;6.10;83.90;;;;;;4946387;29;20052;-75
2022/04/01 10:13:12;;;;;;;5.60;1.70;;;6.10;85.00;;;;;;4947249;29;20111;-82
2022/04/01 10:15:42;;;;;;;6.70;1.63;;;6.20;83.20;;;;;;4947187;29;20043;-74
2022/04/01 10:18:09;;;;;;;179.98;122.05;;;6.40;84.00;;;;;;4947617;28;20050;-73
2022/04/01 10:20:37;;;;;;;9.68;4.95;;;6.60;79.40;;;;;;4926872;29;20060;-74
2022/04/01 10:23:11;;;;;;;9.30;3.20;;;6.50;80.10;;;;;;4919658;29;20074;-72
2022/04/01 10:25:47;;;;;;;5.05;1.75;;;6.40;81.00;;;;;;4934582;29;20143;-71
2022/04/01 10:28:15;;;;;;;5.13;1.60;;;6.30;82.30;;;;;;4943325;29;20047;-74
2022/04/01 10:30:53;;;;;;;8.43;1.63;;;6.20;80.50;;;;;;4919999;29;20111;-74
2022/04/01 10:33:24;;;;;;;8.15;2.00;;;6.10;80.00;;;;;;4947465;29;20125;-74
2022/04/01 10:35:52;;;;;;;6.60;1.35;;;5.80;83.90;;;;;;4945044;29;20447;-76
2022/04/01 10:38:20;;;;;;;2.97;1.52;;;5.60;88.40;;;;;;4928268;29;20516;-74
2022/04/01 10:40:49;;;;;;;5.82;1.60;;;5.50;87.20;;;;;;4944284;29;20043;-75
2022/04/01 10:43:27;;;;;;;5.18;1.88;;;5.50;86.50;;;;;;4926675;29;20062;-74
2022/04/01 10:46:14;;;;;;;17.90;8.27;;;5.70;88.40;;;;;;4928151;29;20054;-74
2022/04/01 10:52:10;;;;;;;3.45;1.58;;;5.90;85.90;;;;;;4944165;29;20055;-72
2022/04/01 10:54:44;;;;;;;7.53;2.35;;;6.10;85.80;;;;;;4946410;29;20051;-72
2022/04/01 10:57:28;;;;;;;6.15;1.50;;;6.20;85.40;;;;;;4940056;29;20079;-74
2022/04/01 10:59:59;;;;;;;4.28;2.10;;;6.30;84.40;;;;;;4928553;29;20047;-73
2022/04/01 11:02:26;;;;;;;10.13;2.17;;;6.40;83.70;;;;;;4948688;29;20054;-70
2022/04/01 11:04:53;;;;;;;6.65;2.42;;;6.50;83.60;;;;;;4929677;29;20051;-75
2022/04/01 11:07:23;;;;;;;3.95;1.40;;;6.50;81.70;;;;;;4949400;28;20098;-74
2022/04/01 11:09:51;;;;;;;;;;;6.60;81.70;;;;;;4946775;29;20047;-75
2022/04/01 11:12:21;;;;;;;6.13;1.70;;;6.70;80.30;;;;;;4966379;28;19929;-75
2022/04/01 11:14:55;;;;;;;5.88;1.52;;;6.90;80.70;;;;;;4944106;28;20392;-74
2022/04/01 11:17:34;;;;;;;10.80;1.90;;;7.00;75.10;;;;;;4939745;29;20142;-75
2022/04/01 11:20:02;;;;;;;3.43;1.93;;;7.20;67.90;;;;;;4946847;29;20415;-74
2022/04/01 11:22:46;;;;;;;4.15;1.55;;;7.40;69.10;;;;;;4948989;29;20285;-72
2022/04/01 11:25:27;;;;;;;4.45;1.42;;;7.60;67.60;;;;;;4950238;29;20055;-73
2022/04/01 11:27:57;;;;;;;7.32;1.60;;;7.80;66.30;;;;;;4949471;29;20402;-75
2022/04/01 11:30:29;;;;;;;4.78;1.70;;;7.90;65.70;;;;;;4944923;28;20081;-68
2022/04/01 11:33:12;;;;;;;3.95;2.20;;;7.90;66.50;;;;;;4946903;29;20098;-70
2022/04/01 11:35:41;;;;;;;3.60;1.35;;;8.10;64.50;;;;;;4951480;29;20055;-71
2022/04/01 11:38:15;;;;;;;3.75;1.38;;;8.20;58.30;;;;;;4944236;29;20059;-70
2022/04/01 11:40:44;;;;;;;5.13;1.65;;;8.40;56.40;;;;;;4947957;29;20103;-71
2022/04/01 11:43:16;;;;;;;3.47;1.00;;;8.50;54.00;;;;;;4948066;29;20047;-69
2022/04/01 11:45:50;;;;;;;5.78;1.70;;;8.30;53.20;;;;;;4948669;28;20043;-71
2022/04/01 11:48:26;;;;;;;4.03;1.88;;;8.50;59.00;;;;;;4925261;29;20066;-71
2022/04/01 11:51:00;;;;;;;4.43;1.40;;;8.60;57.50;;;;;;4934531;29;20095;-70
2022/04/01 11:53:30;;;;;;;5.28;2.53;;;8.70;58.70;;;;;;4940859;29;20060;-72
2022/04/01 11:56:00;;;;;;;16.60;10.00;;;8.60;59.30;;;;;;4953462;28;20134;-72
2022/04/01 11:58:33;;;;;;;3.90;2.00;;;8.40;58.80;;;;;;4938455;29;20051;-72
2022/04/01 12:01:00;;;;;;;5.63;2.10;;;8.10;59.20;;;;;;4930940;29;20184;-70
2022/04/01 12:03:31;;;;;;;5.50;2.38;;;8.10;58.90;;;;;;4946318;29;20055;-70
2022/04/01 12:08:41;;;;;;;5.40;1.52;;;8.00;57.40;;;;;;4945068;29;20510;-69
2022/04/01 12:08:46;;;;;;;3.88;1.45;;;7.80;57.10;;;;;;4953288;28;20402;-72
2022/04/01 12:11:13;;;;;;;3.65;1.42;;;7.70;57.70;;;;;;4936838;29;20460;-73
2022/04/01 12:13:55;;;;;;;4.03;1.42;;;7.80;57.90;;;;;;4952356;29;20122;-72
2022/04/01 12:16:22;;;;;;;8.13;2.08;;;7.90;58.90;;;;;;4945037;29;20499;-74
2022/04/01 12:18:49;;;;;;;4.60;1.70;;;7.80;60.10;;;;;;4919484;29;20055;-76
2022/04/01 12:21:21;;;;;;;5.25;1.38;;;7.90;60.70;;;;;;4932483;29;20048;-76
2022/04/01 12:23:50;;;;;;;5.45;1.50;;;7.70;63.30;;;;;;4930478;28;20058;-75
2022/04/01 12:26:18;;;;;;;5.30;1.30;;;7.50;64.60;;;;;;4947119;28;20043;-74
2022/04/01 12:28:48;;;;;;;3.35;1.40;;;7.30;65.90;;;;;;4941839;29;20050;-74
2022/04/01 12:31:22;;;;;;;;;;;7.40;65.80;;;;;;4929815;29;20058;-72
2022/04/01 12:33:51;;;;;;;3.67;1.67;;;7.50;62.70;;;;;;4949758;29;19922;-71
2022/04/01 12:36:34;;;;;;;6.35;1.55;;;7.50;60.50;;;;;;4949613;28;20047;-69
2022/04/01 12:39:09;;;;;;;91.50;57.15;;;7.50;59.30;;;;;;4939152;29;20062;-70
2022/04/01 12:41:50;;;;;;;9.75;5.22;;;7.70;61.80;;;;;;4933138;29;20055;-72
2022/04/01 12:44:17;;;;;;;4.35;1.98;;;7.80;61.30;;;;;;4952467;29;20506;-71
2022/04/01 12:46:48;;;;;;;4.18;1.70;;;8.00;61.30;;;;;;4946588;29;20078;-68
2022/04/01 12:49:19;;;;;;;3.75;1.40;;;8.30;61.20;;;;;;4938881;29;20048;-67
2022/04/01 12:52:16;;;;;;;8.43;2.20;;;8.60;61.30;;;;;;4934896;29;20079;-67
2022/04/01 12:54:53;;;;;;;3.67;1.35;;;8.70;60.60;;;;;;4917249;29;20054;-68
2022/04/01 12:57:20;;;;;;;3.50;1.52;;;8.30;63.40;;;;;;4942938;29;20047;-70
2022/04/01 12:59:48;;;;;;;5.40;1.77;;;8.00;64.50;;;;;;4941499;29;20047;-69
2022/04/01 13:02:17;;;;;;;4.22;1.40;;;7.80;64.30;;;;;;4934341;29;20062;-70
2022/04/01 13:04:51;;;;;;;5.70;2.10;;;7.50;67.20;;;;;;4926598;29;20055;-70
2022/04/01 13:07:22;;;;;;;6.85;1.77;;;7.20;72.60;;;;;;4940789;29;20048;-73
2022/04/01 13:09:58;;;;;;;53.05;32.63;;;7.10;73.20;;;;;;4942673;29;20051;-72
2022/04/01 13:12:28;;;;;;;7.15;4.65;;;7.10;71.20;;;;;;4933038;29;20047;-71
2022/04/01 13:15:00;;;;;;;9.90;2.13;;;7.40;71.30;;;;;;4950428;28;20050;-69
2022/04/01 13:17:27;;;;;;;4.90;2.33;;;7.60;67.10;;;;;;4941294;28;20061;-68
2022/04/01 13:19:54;;;;;;;3.28;1.65;;;7.80;64.80;;;;;;4935383;29;20130;-68
2022/04/01 13:22:21;;;;;;;6.63;1.60;;;7.80;66.60;;;;;;4951034;28;20063;-79